Terminal Aerodrome Forecast
Issued by NWS Twin Cities, MN

Home | Current Version | Previous Version | Text Only | Print | Product List | Glossary On
Versions: 1 2 3 4 5 6 7 8 9 10 11 12
000
FTUS43 KMPX 131100
TAFEAU
TAF
KEAU 131122Z 1312/1412 22004KT P6SM SCT080
      TEMPO 1312/1313 3SM BR SCT001
     FM131700 21008KT P6SM SCT250
     FM140100 17006KT P6SM FEW200=

USA.gov is the U.S. government's official web portal to all federal, state and local government web resources and services.